createdAt,value
2022-12-15T00:00:30.486Z,11.00
2022-12-15T00:03:23.530Z,12.15
2022-12-15T00:06:10.659Z,12.60
2022-12-15T00:08:56.621Z,9.60
2022-12-15T00:11:42.652Z,12.18
2022-12-15T00:14:27.877Z,11.35
2022-12-15T00:17:14.074Z,11.90
2022-12-15T00:20:01.238Z,9.95
2022-12-15T00:22:47.525Z,10.18
2022-12-15T00:25:33.981Z,10.35
2022-12-15T00:28:20.255Z,9.10
2022-12-15T00:31:05.728Z,10.05
2022-12-15T00:33:51.775Z,9.25
2022-12-15T00:36:38.526Z,9.23
2022-12-15T00:39:07.428Z,9.70
2022-12-15T00:41:35.401Z,10.18
2022-12-15T00:44:03.868Z,10.30
2022-12-15T00:46:50.279Z,10.60
2022-12-15T00:49:32.253Z,8.48
2022-12-15T00:52:19.618Z,10.52
2022-12-15T00:55:04.955Z,9.88
2022-12-15T00:57:51.233Z,9.43
2022-12-15T01:00:36.639Z,10.65
2022-12-15T01:03:29.605Z,9.90
2022-12-15T01:06:15.426Z,11.38
2022-12-15T01:09:03.436Z,10.00
2022-12-15T01:11:48.584Z,11.13
2022-12-15T01:14:34.714Z,10.52
2022-12-15T01:17:19.967Z,11.38
2022-12-15T01:20:05.623Z,9.10
2022-12-15T01:22:37.096Z,8.70
2022-12-15T01:25:09.276Z,7.75
2022-12-15T01:27:37.294Z,9.85
2022-12-15T01:30:08.266Z,9.32
2022-12-15T01:32:41.414Z,9.35
2022-12-15T01:35:13.166Z,10.35
2022-12-15T01:37:41.577Z,8.02
2022-12-15T01:40:32.202Z,10.15
2022-12-15T01:43:01.224Z,10.93
2022-12-15T01:45:48.016Z,9.85
2022-12-15T01:48:21.987Z,11.18
2022-12-15T01:51:00.083Z,10.35
2022-12-15T01:53:29.529Z,8.98
2022-12-15T01:56:00.148Z,8.52
2022-12-15T02:00:56.152Z,9.52
2022-12-15T02:03:26.900Z,8.88
2022-12-15T02:05:56.146Z,9.93
2022-12-15T02:08:24.596Z,9.55
2022-12-15T02:11:11.977Z,10.38
2022-12-15T02:13:49.764Z,8.38
2022-12-15T02:16:24.606Z,10.18
2022-12-15T02:19:02.546Z,9.80
2022-12-15T02:21:33.309Z,9.63
2022-12-15T02:24:40.232Z,8.45
2022-12-15T02:27:22.767Z,9.18
2022-12-15T02:30:21.342Z,9.38
2022-12-15T02:33:04.855Z,9.65
2022-12-15T02:35:43.673Z,8.48
2022-12-15T02:38:11.914Z,9.77
2022-12-15T02:40:40.622Z,9.55
2022-12-15T02:43:11.570Z,8.98
2022-12-15T02:45:52.977Z,11.50
2022-12-15T02:48:32.655Z,9.88
2022-12-15T02:51:17.659Z,9.23
2022-12-15T02:54:07.453Z,9.93
2022-12-15T02:56:42.641Z,12.63
2022-12-15T02:59:19.205Z,8.82
2022-12-15T03:01:52.542Z,6.68
2022-12-15T03:04:24.522Z,10.25
2022-12-15T03:07:00.842Z,10.75
2022-12-15T03:09:30.221Z,8.73
2022-12-15T03:11:58.244Z,8.75
2022-12-15T03:14:26.734Z,11.65
2022-12-15T03:16:56.037Z,10.80
2022-12-15T03:19:25.907Z,12.13
2022-12-15T03:21:54.933Z,10.98
2022-12-15T03:24:22.912Z,10.23
2022-12-15T03:26:51.881Z,10.68
2022-12-15T03:29:21.523Z,11.15
2022-12-15T03:31:50.069Z,12.98
2022-12-15T03:34:19.591Z,13.05
2022-12-15T03:36:49.442Z,13.45
2022-12-15T03:39:17.443Z,12.15
2022-12-15T03:41:45.870Z,11.75
2022-12-15T03:44:14.662Z,10.77
2022-12-15T03:46:42.621Z,11.40
2022-12-15T03:49:11.010Z,11.80
2022-12-15T03:51:39.789Z,14.02
2022-12-15T03:54:09.258Z,15.55
2022-12-15T03:56:37.985Z,13.60
2022-12-15T03:59:05.919Z,11.73
2022-12-15T04:01:36.102Z,11.30
2022-12-15T04:04:06.446Z,11.43
2022-12-15T04:06:34.427Z,10.63
2022-12-15T04:09:02.871Z,11.13
2022-12-15T04:11:32.605Z,11.65
2022-12-15T04:16:28.513Z,11.52
2022-12-15T04:19:11.399Z,10.05
2022-12-15T04:21:39.589Z,10.32
2022-12-15T04:24:25.735Z,10.82
2022-12-15T04:27:12.495Z,11.60
2022-12-15T04:29:58.782Z,12.30
2022-12-15T04:32:44.257Z,13.63
2022-12-15T04:35:36.399Z,10.13
2022-12-15T04:38:22.074Z,11.45
2022-12-15T04:41:08.220Z,10.50
2022-12-15T04:43:55.482Z,8.70
2022-12-15T04:46:41.270Z,10.35
2022-12-15T04:49:26.664Z,10.93
2022-12-15T04:52:12.842Z,9.95
2022-12-15T04:54:57.992Z,10.68
2022-12-15T04:57:44.124Z,9.77
2022-12-15T05:00:32.226Z,7.72
2022-12-15T05:03:23.377Z,9.63
2022-12-15T05:06:08.558Z,11.60
2022-12-15T05:08:54.836Z,9.98
2022-12-15T05:11:40.685Z,12.30
2022-12-15T05:14:27.432Z,9.18
2022-12-15T05:17:14.663Z,10.20
2022-12-15T05:20:01.125Z,8.80
2022-12-15T05:22:46.493Z,10.65
2022-12-15T05:25:33.365Z,13.55
2022-12-15T05:28:18.590Z,10.55
2022-12-15T05:31:05.178Z,12.43
2022-12-15T05:33:34.757Z,10.95
2022-12-15T05:36:02.844Z,12.05
2022-12-15T05:38:31.611Z,11.88
2022-12-15T05:40:59.764Z,9.38
2022-12-15T05:43:29.878Z,10.73
2022-12-15T05:46:04.439Z,10.57
2022-12-15T05:48:33.803Z,10.77
2022-12-15T05:51:05.397Z,12.38
2022-12-15T05:53:33.719Z,12.13
2022-12-15T05:56:03.226Z,10.30
2022-12-15T05:58:32.313Z,10.13
2022-12-15T06:01:06.904Z,9.73
2022-12-15T06:03:37.378Z,11.85
2022-12-15T06:08:36.264Z,11.65
2022-12-15T06:11:05.692Z,9.80
2022-12-15T06:13:35.465Z,11.45
2022-12-15T06:16:06.764Z,12.80
2022-12-15T06:18:38.806Z,11.02
2022-12-15T06:21:11.636Z,13.43
2022-12-15T06:23:40.193Z,11.75
2022-12-15T06:26:14.691Z,12.35
2022-12-15T06:28:43.807Z,10.40
2022-12-15T06:31:13.450Z,10.93
2022-12-15T06:33:43.865Z,12.45
2022-12-15T06:36:14.687Z,12.60
2022-12-15T06:38:44.078Z,10.32
2022-12-15T06:41:13.607Z,10.77
2022-12-15T06:46:11.499Z,10.30
2022-12-15T06:48:40.004Z,10.25
2022-12-15T06:51:16.386Z,12.02
2022-12-15T06:53:49.133Z,10.32
2022-12-15T06:56:20.784Z,11.00
2022-12-15T06:58:50.269Z,11.43
2022-12-15T07:01:19.494Z,11.73
2022-12-15T07:03:48.534Z,10.68
2022-12-15T07:06:18.757Z,12.20
2022-12-15T07:08:52.289Z,11.07
2022-12-15T07:11:22.271Z,11.82
2022-12-15T07:13:50.799Z,11.25
2022-12-15T07:16:19.053Z,13.65
2022-12-15T07:18:48.010Z,9.85
2022-12-15T07:21:17.640Z,10.30
2022-12-15T07:23:54.712Z,11.48
2022-12-15T07:26:24.296Z,12.27
2022-12-15T07:28:52.946Z,11.45
2022-12-15T07:31:21.500Z,11.38
2022-12-15T07:33:49.876Z,10.35
2022-12-15T07:36:19.532Z,11.82
2022-12-15T07:41:20.334Z,11.10
2022-12-15T07:43:48.487Z,11.05
2022-12-15T07:46:16.643Z,9.43
2022-12-15T07:48:44.665Z,9.65
2022-12-15T07:51:21.668Z,8.73
2022-12-15T07:53:51.112Z,10.90
2022-12-15T07:58:49.149Z,9.90
2022-12-15T08:01:18.190Z,10.23
2022-12-15T08:03:46.338Z,10.15
2022-12-15T08:06:16.814Z,10.93
2022-12-15T08:11:21.824Z,9.60
2022-12-15T08:14:10.372Z,10.88
2022-12-15T08:16:40.125Z,9.93
2022-12-15T08:19:11.364Z,10.18
2022-12-15T08:21:41.231Z,10.30
2022-12-15T08:24:11.304Z,9.73
2022-12-15T08:26:41.338Z,9.63
2022-12-15T08:32:03.544Z,10.30
2022-12-15T08:34:31.621Z,9.15
2022-12-15T08:36:59.996Z,10.25
2022-12-15T08:39:30.054Z,9.90
2022-12-15T08:41:58.010Z,10.63
2022-12-15T08:44:25.926Z,12.27
2022-12-15T08:46:54.736Z,9.45
2022-12-15T08:49:22.756Z,10.50
2022-12-15T08:51:52.313Z,10.52
2022-12-15T08:54:21.166Z,10.00
2022-12-15T08:56:51.041Z,10.55
2022-12-15T08:59:20.610Z,10.50
2022-12-15T09:01:48.855Z,11.25
2022-12-15T09:04:17.753Z,10.50
2022-12-15T09:06:50.799Z,9.60
2022-12-15T09:09:19.226Z,10.75
2022-12-15T09:11:47.162Z,10.18
2022-12-15T09:14:17.624Z,10.63
2022-12-15T09:19:13.936Z,8.82
2022-12-15T09:21:45.394Z,9.10
2022-12-15T09:24:23.224Z,10.23
2022-12-15T09:26:55.283Z,9.75
2022-12-15T09:29:24.641Z,9.43
2022-12-15T09:31:53.157Z,9.32
2022-12-15T09:34:21.865Z,9.45
2022-12-15T09:36:49.875Z,8.80
2022-12-15T09:39:18.548Z,9.38
2022-12-15T09:41:54.546Z,10.10
2022-12-15T09:44:26.774Z,10.38
2022-12-15T09:47:18.140Z,9.57
2022-12-15T09:49:56.124Z,9.93
2022-12-15T09:52:29.441Z,10.07
2022-12-15T09:54:58.697Z,11.48
2022-12-15T09:57:45.420Z,10.82
2022-12-15T10:00:22.260Z,8.95
2022-12-15T10:03:23.464Z,10.07
2022-12-15T10:06:17.110Z,9.55
2022-12-15T10:08:51.830Z,9.63
2022-12-15T10:11:30.488Z,8.63
2022-12-15T10:14:06.761Z,9.75
2022-12-15T10:16:46.230Z,9.27
2022-12-15T10:19:27.946Z,9.27
2022-12-15T10:21:57.369Z,9.27
2022-12-15T10:25:09.086Z,8.75
2022-12-15T10:27:37.623Z,8.85
2022-12-15T10:30:10.061Z,8.15
2022-12-15T10:32:50.659Z,8.60
2022-12-15T10:35:23.580Z,9.40
2022-12-15T10:37:51.540Z,8.75
2022-12-15T10:40:21.684Z,10.18
2022-12-15T10:42:52.132Z,8.98
2022-12-15T10:48:07.532Z,8.32
2022-12-15T10:50:36.920Z,8.70
2022-12-15T10:53:10.375Z,8.80
2022-12-15T10:55:40.791Z,8.80
2022-12-15T10:58:18.722Z,9.80
2022-12-15T11:00:50.962Z,9.00
2022-12-15T11:03:26.997Z,9.50
2022-12-15T11:05:56.721Z,9.07
2022-12-15T11:08:25.738Z,9.57
2022-12-15T11:11:13.457Z,8.40
2022-12-15T11:13:42.543Z,8.48
2022-12-15T11:16:16.586Z,9.77
2022-12-15T11:18:49.851Z,8.55
2022-12-15T11:21:23.416Z,8.52
2022-12-15T11:24:05.866Z,8.95
2022-12-15T11:26:48.887Z,10.18
2022-12-15T11:29:27.548Z,8.70
2022-12-15T11:32:04.771Z,9.15
2022-12-15T11:34:38.806Z,9.15
2022-12-15T11:37:36.919Z,9.00
2022-12-15T11:40:20.682Z,8.95
2022-12-15T11:43:02.541Z,8.35
2022-12-15T11:45:42.082Z,8.70
2022-12-15T11:50:53.503Z,9.25
2022-12-15T11:53:50.351Z,9.27
2022-12-15T11:56:29.424Z,8.93
2022-12-15T11:59:17.240Z,9.73
2022-12-15T12:02:05.846Z,7.82
2022-12-15T12:04:43.808Z,8.93
2022-12-15T12:07:25.958Z,8.15
2022-12-15T12:10:06.800Z,9.00
2022-12-15T12:12:43.757Z,8.38
2022-12-15T12:15:26.822Z,8.50
2022-12-15T12:17:59.174Z,7.68
2022-12-15T12:20:35.381Z,8.18
2022-12-15T12:23:11.004Z,8.68
2022-12-15T12:25:47.397Z,8.07
2022-12-15T12:28:20.467Z,8.18
2022-12-15T12:30:50.425Z,8.38
2022-12-15T12:33:31.534Z,8.63
2022-12-15T12:36:06.452Z,8.65
2022-12-15T12:38:41.377Z,8.00
2022-12-15T12:41:18.674Z,8.45
2022-12-15T12:43:51.624Z,8.52
2022-12-15T12:46:25.729Z,8.80
2022-12-15T12:48:56.803Z,8.60
2022-12-15T12:51:30.263Z,8.38
2022-12-15T12:54:00.806Z,7.95
2022-12-15T12:56:42.167Z,9.35
2022-12-15T12:59:36.321Z,9.30
2022-12-15T13:02:42.056Z,8.73
2022-12-15T13:05:28.619Z,8.27
2022-12-15T13:08:18.186Z,8.40
2022-12-15T13:10:50.861Z,8.43
2022-12-15T13:13:38.720Z,8.23
2022-12-15T13:16:12.279Z,8.88
2022-12-15T13:19:02.545Z,8.32
2022-12-15T13:21:55.323Z,8.15
2022-12-15T13:24:33.646Z,8.10
2022-12-15T13:27:16.460Z,8.60
2022-12-15T13:29:58.436Z,9.25
2022-12-15T13:32:36.014Z,8.48
2022-12-15T13:35:22.210Z,8.35
2022-12-15T13:37:52.472Z,7.93
2022-12-15T13:40:35.515Z,8.60
2022-12-15T13:43:38.675Z,8.32
2022-12-15T13:46:17.080Z,7.75
2022-12-15T13:48:49.297Z,8.15
2022-12-15T13:51:27.278Z,8.52
2022-12-15T13:54:00.457Z,8.55
2022-12-15T13:56:53.410Z,8.68
2022-12-15T13:59:30.421Z,8.68
2022-12-15T14:01:59.435Z,8.25
2022-12-15T14:04:28.211Z,9.93
2022-12-15T14:06:59.688Z,8.52
2022-12-15T14:09:31.466Z,8.82
2022-12-15T14:12:03.072Z,8.65
2022-12-15T14:14:35.838Z,8.70
2022-12-15T14:17:09.348Z,9.00
2022-12-15T14:19:40.209Z,8.80
2022-12-15T14:22:28.162Z,8.45
2022-12-15T14:25:03.283Z,9.18
2022-12-15T14:27:35.199Z,9.18
2022-12-15T14:30:24.624Z,9.88
2022-12-15T14:32:58.059Z,8.55
2022-12-15T14:35:31.161Z,9.38
2022-12-15T14:38:03.000Z,9.75
2022-12-15T14:40:31.329Z,10.32
2022-12-15T14:42:59.297Z,8.90
2022-12-15T14:45:32.710Z,9.05
2022-12-15T14:48:39.489Z,10.10
2022-12-15T14:50:51.992Z,9.25
2022-12-15T14:53:22.164Z,10.77
2022-12-15T14:55:51.609Z,9.18
2022-12-15T14:58:35.159Z,9.30
2022-12-15T15:01:07.268Z,8.75
2022-12-15T15:03:39.077Z,10.00
2022-12-15T15:06:16.701Z,9.25
2022-12-15T15:08:48.977Z,8.85
2022-12-15T15:11:29.397Z,8.95
2022-12-15T15:14:01.457Z,9.13
2022-12-15T15:16:31.113Z,10.25
2022-12-15T15:19:03.229Z,10.25
2022-12-15T15:21:35.146Z,12.20
2022-12-15T15:24:05.742Z,13.38
2022-12-15T15:26:33.783Z,14.18
2022-12-15T15:29:02.509Z,13.95
2022-12-15T15:31:41.541Z,13.00
2022-12-15T15:34:11.401Z,12.43
2022-12-15T15:39:15.228Z,10.02
2022-12-15T15:41:44.229Z,9.35
2022-12-15T15:44:15.002Z,10.70
2022-12-15T15:46:49.832Z,10.55
2022-12-15T15:49:21.528Z,10.48
2022-12-15T15:51:50.614Z,10.85
2022-12-15T15:54:21.201Z,10.70
2022-12-15T15:56:49.717Z,10.48
2022-12-15T15:59:21.477Z,10.55
2022-12-15T16:01:54.415Z,9.90
2022-12-15T16:04:24.746Z,10.77
2022-12-15T16:06:53.691Z,9.95
2022-12-15T16:09:22.409Z,9.65
2022-12-15T16:11:51.226Z,11.05
2022-12-15T16:14:19.691Z,9.65
2022-12-15T16:16:47.696Z,10.40
2022-12-15T16:19:17.455Z,9.90
2022-12-15T16:21:45.408Z,11.98
2022-12-15T16:24:17.696Z,11.35
2022-12-15T16:26:49.502Z,11.68
2022-12-15T16:29:22.489Z,10.55
2022-12-15T16:34:21.759Z,10.35
2022-12-15T16:36:50.661Z,10.43
2022-12-15T16:39:26.717Z,10.10
2022-12-15T16:41:56.779Z,10.23
2022-12-15T16:44:25.785Z,10.52
2022-12-15T16:46:53.967Z,10.77
2022-12-15T16:49:23.304Z,9.50
2022-12-15T16:51:53.889Z,10.10
2022-12-15T16:54:24.658Z,9.77
2022-12-15T16:56:54.185Z,10.05
2022-12-15T16:59:34.926Z,9.98
2022-12-15T17:02:19.237Z,9.07
2022-12-15T17:04:48.820Z,8.73
2022-12-15T17:07:20.429Z,10.27
2022-12-15T17:09:50.812Z,11.57
2022-12-15T17:12:19.336Z,10.77
2022-12-15T17:14:48.128Z,10.88
2022-12-15T17:17:18.224Z,10.20
2022-12-15T17:20:11.731Z,11.20
2022-12-15T17:22:36.265Z,11.30
2022-12-15T17:27:32.025Z,11.13
2022-12-15T17:30:03.456Z,11.57
2022-12-15T17:32:31.548Z,11.30
2022-12-15T17:34:59.550Z,12.07
2022-12-15T17:37:34.883Z,12.55
2022-12-15T17:40:14.777Z,11.50
2022-12-15T17:42:43.695Z,13.23
2022-12-15T17:45:20.903Z,10.55
2022-12-15T17:47:50.602Z,11.68
2022-12-15T17:50:19.404Z,11.68
2022-12-15T17:52:49.536Z,10.93
2022-12-15T17:55:29.077Z,10.93
2022-12-15T17:58:00.077Z,11.00
2022-12-15T18:00:30.787Z,10.95
2022-12-15T18:03:00.623Z,10.68
2022-12-15T18:05:31.711Z,10.52
2022-12-15T18:08:02.609Z,10.25
2022-12-15T18:10:36.608Z,10.63
2022-12-15T18:13:05.344Z,11.27
2022-12-15T18:15:34.036Z,10.75
2022-12-15T18:18:01.975Z,10.85
2022-12-15T18:20:29.955Z,9.93
2022-12-15T18:22:58.796Z,10.35
2022-12-15T18:25:28.423Z,11.27
2022-12-15T18:27:59.763Z,11.70
2022-12-15T18:30:28.323Z,11.43
2022-12-15T18:32:59.887Z,10.15
2022-12-15T18:35:34.247Z,10.57
2022-12-15T18:38:02.178Z,11.70
2022-12-15T18:40:31.324Z,12.40
2022-12-15T18:43:01.618Z,12.40
2022-12-15T18:45:29.613Z,11.52
2022-12-15T18:47:57.927Z,11.85
2022-12-15T18:50:27.996Z,13.05
2022-12-15T18:53:00.260Z,11.73
2022-12-15T18:55:31.972Z,12.25
2022-12-15T18:58:02.818Z,12.18
2022-12-15T19:00:32.906Z,12.77
2022-12-15T19:03:02.773Z,11.30
2022-12-15T19:05:33.039Z,11.60
2022-12-15T19:08:04.305Z,11.98
2022-12-15T19:10:35.828Z,12.48
2022-12-15T19:13:05.421Z,11.60
2022-12-15T19:18:19.458Z,11.23
2022-12-15T19:21:05.103Z,9.90
2022-12-15T19:23:34.751Z,10.90
2022-12-15T19:26:03.167Z,11.25
2022-12-15T19:28:33.614Z,11.50
2022-12-15T19:31:01.775Z,10.25
2022-12-15T19:33:30.986Z,10.57
2022-12-15T19:36:00.410Z,10.00
2022-12-15T19:38:31.195Z,12.55
2022-12-15T19:41:01.080Z,11.55
2022-12-15T19:43:29.547Z,12.35
2022-12-15T19:45:59.211Z,12.30
2022-12-15T19:48:28.205Z,12.48
2022-12-15T19:50:56.202Z,11.88
2022-12-15T19:53:26.823Z,11.95
2022-12-15T19:55:57.746Z,11.48
2022-12-15T19:58:29.042Z,10.98
2022-12-15T20:01:02.233Z,12.32
2022-12-15T20:03:31.837Z,13.82
2022-12-15T20:06:02.813Z,13.43
2022-12-15T20:08:35.227Z,12.25
2022-12-15T20:11:03.743Z,13.80
2022-12-15T20:13:32.121Z,13.77
2022-12-15T20:16:01.792Z,12.40
2022-12-15T20:18:30.770Z,12.88
2022-12-15T20:21:01.387Z,12.02
2022-12-15T20:23:32.469Z,12.68
2022-12-15T20:26:01.269Z,14.02
2022-12-15T20:28:30.793Z,13.85
2022-12-15T20:33:28.893Z,11.52
2022-12-15T20:35:57.708Z,12.95
2022-12-15T20:38:29.736Z,12.43
2022-12-15T20:40:58.568Z,12.68
2022-12-15T20:43:32.187Z,11.77
2022-12-15T20:46:04.889Z,11.15
2022-12-15T20:48:37.333Z,11.00
2022-12-15T20:51:09.566Z,10.65
2022-12-15T20:53:38.919Z,11.60
2022-12-15T20:56:07.363Z,11.63
2022-12-15T20:58:41.801Z,12.38
2022-12-15T21:01:21.884Z,12.63
2022-12-15T21:03:52.749Z,12.57
2022-12-15T21:06:22.244Z,12.73
2022-12-15T21:08:50.494Z,16.10
2022-12-15T21:11:21.683Z,15.43
2022-12-15T21:13:51.279Z,14.55
2022-12-15T21:16:21.556Z,14.38
2022-12-15T21:19:18.540Z,15.02
2022-12-15T21:21:43.213Z,16.85
2022-12-15T21:24:16.626Z,16.08
2022-12-15T21:26:45.040Z,15.60
2022-12-15T21:29:14.783Z,14.18
2022-12-15T21:31:44.293Z,13.25
2022-12-15T21:34:14.190Z,13.15
2022-12-15T21:36:44.940Z,11.70
2022-12-15T21:39:17.018Z,12.63
2022-12-15T21:41:45.588Z,11.30
2022-12-15T21:44:14.715Z,11.63
2022-12-15T21:46:43.342Z,12.50
2022-12-15T21:49:15.352Z,11.23
2022-12-15T21:51:45.377Z,11.65
2022-12-15T21:54:19.619Z,12.48
2022-12-15T21:56:48.643Z,10.82
2022-12-15T21:59:18.700Z,12.82
2022-12-15T22:01:48.031Z,14.60
2022-12-15T22:04:22.566Z,13.93
2022-12-15T22:06:51.459Z,13.98
2022-12-15T22:09:21.184Z,14.82
2022-12-15T22:11:53.334Z,15.82
2022-12-15T22:14:26.526Z,15.30
2022-12-15T22:16:55.966Z,15.73
2022-12-15T22:19:25.552Z,13.88
2022-12-15T22:21:54.234Z,16.65
2022-12-15T22:24:23.429Z,16.60
2022-12-15T22:26:51.576Z,18.20
2022-12-15T22:29:22.305Z,15.32
2022-12-15T22:31:52.144Z,17.52
2022-12-15T22:34:22.368Z,16.45
2022-12-15T22:36:52.790Z,14.65
2022-12-15T22:39:23.014Z,17.40
2022-12-15T22:41:54.237Z,17.13
2022-12-15T22:44:24.870Z,18.63
2022-12-15T22:46:57.315Z,17.85
2022-12-15T22:49:30.048Z,17.08
2022-12-15T22:52:00.329Z,17.33
2022-12-15T22:54:29.979Z,17.27
2022-12-15T22:57:02.332Z,16.38
2022-12-15T22:59:37.009Z,17.23
2022-12-15T23:02:06.565Z,16.60
2022-12-15T23:04:34.867Z,15.45
2022-12-15T23:07:10.501Z,17.02
2022-12-15T23:09:38.587Z,15.98
2022-12-15T23:12:05.974Z,16.42
2022-12-15T23:14:52.086Z,16.80
2022-12-15T23:17:20.112Z,17.80
2022-12-15T23:19:48.923Z,15.93
2022-12-15T23:22:18.951Z,17.13
2022-12-15T23:24:46.899Z,16.65
2022-12-15T23:27:15.994Z,15.75
2022-12-15T23:29:43.931Z,16.00
2022-12-15T23:32:12.403Z,13.65
2022-12-15T23:34:41.126Z,16.05
2022-12-15T23:37:09.144Z,16.55
2022-12-15T23:39:38.515Z,17.25
2022-12-15T23:42:07.613Z,14.50
2022-12-15T23:44:37.376Z,13.53
2022-12-15T23:47:06.145Z,14.45
2022-12-15T23:49:34.304Z,12.30
2022-12-15T23:52:02.289Z,13.15
2022-12-15T23:54:30.450Z,12.68
2022-12-15T23:57:00.771Z,12.23
2022-12-15T23:59:28.792Z,13.38
